SBI5308 UNKL-UNNT
Flight info
| Callsign | SBI5308 |
|---|---|
| Flight time | N/A |
| Altitude | 34000 |
| Route | APRUS B926 NATIR |
| Aircraft | E170/M-SDE2E3FGHIRWXY/LB1 |
Departure
| Time | 2026-04-30 14:10 |
|---|---|
| Airport | Krasnoyarsk International Airport (UNKL) |
Arrival
| Time | N/A |
|---|---|
| Airport | Novosibirsk Tolmachevo Airport (UNNT) |
| Time | Latitude | Longitude | Altitude | Speed | Heading |
|---|---|---|---|---|---|
| 2026-04-30 13:48 | 56.17938 | 92.48530 | 949 ft | 0 kts | 22° |
| 2026-04-30 14:01 | 56.17920 | 92.48517 | 948 ft | 4 kts | 22° |
| 2026-04-30 14:02 | 56.17900 | 92.48502 | 948 ft | 4 kts | 19° |
| 2026-04-30 14:02 | 56.17874 | 92.48499 | 949 ft | 4 kts | 340° |
| 2026-04-30 14:02 | 56.17860 | 92.48530 | 949 ft | 4 kts | 289° |
| 2026-04-30 14:02 | 56.17853 | 92.48564 | 949 ft | 0 kts | 289° |
| 2026-04-30 14:06 | 56.17842 | 92.48469 | 948 ft | 11 kts | 220° |
| 2026-04-30 14:06 | 56.17704 | 92.48546 | 949 ft | 18 kts | 113° |
| 2026-04-30 14:07 | 56.17566 | 92.49114 | 949 ft | 28 kts | 112° |
| 2026-04-30 14:07 | 56.17489 | 92.49438 | 949 ft | 29 kts | 112° |
| 2026-04-30 14:07 | 56.17414 | 92.49752 | 948 ft | 23 kts | 112° |
| 2026-04-30 14:08 | 56.17287 | 92.50282 | 949 ft | 16 kts | 111° |
| 2026-04-30 14:08 | 56.17256 | 92.50407 | 947 ft | 5 kts | 127° |
| 2026-04-30 14:08 | 56.17122 | 92.50356 | 948 ft | 15 kts | 199° |
| 2026-04-30 14:09 | 56.17080 | 92.50225 | 947 ft | 14 kts | 291° |
| 2026-04-30 14:09 | 56.17160 | 92.49882 | 946 ft | 65 kts | 293° |
| 2026-04-30 14:09 | 56.17857 | 92.46853 | 1526 ft | 165 kts | 291° |
| 2026-04-30 14:10 | 56.18289 | 92.44899 | 2404 ft | 171 kts | 290° |
| 2026-04-30 14:10 | 56.18740 | 92.42761 | 3089 ft | 185 kts | 289° |
| 2026-04-30 14:10 | 56.19249 | 92.40574 | 3967 ft | 200 kts | 294° |
| 2026-04-30 14:10 | 56.19874 | 92.38177 | 4643 ft | 223 kts | 294° |
| 2026-04-30 14:11 | 56.20531 | 92.35555 | 5346 ft | 243 kts | 293° |
| 2026-04-30 14:11 | 56.21230 | 92.32672 | 6114 ft | 259 kts | 292° |
| 2026-04-30 14:11 | 56.21699 | 92.29544 | 7024 ft | 263 kts | 270° |
| 2026-04-30 14:11 | 56.21295 | 92.26341 | 7945 ft | 266 kts | 252° |
| 2026-04-30 14:12 | 56.20655 | 92.23204 | 8821 ft | 269 kts | 252° |
| 2026-04-30 14:12 | 56.20004 | 92.20019 | 9699 ft | 274 kts | 252° |
| 2026-04-30 14:12 | 56.19338 | 92.16792 | 10509 ft | 280 kts | 253° |
| 2026-04-30 14:12 | 56.18865 | 92.14517 | 10755 ft | 295 kts | 252° |
| 2026-04-30 14:13 | 56.17845 | 92.09758 | 11272 ft | 321 kts | 252° |
| 2026-04-30 14:13 | 56.17019 | 92.05954 | 11830 ft | 332 kts | 252° |
| 2026-04-30 14:13 | 56.16178 | 92.02059 | 12658 ft | 336 kts | 252° |
| 2026-04-30 14:13 | 56.15333 | 91.98119 | 13580 ft | 340 kts | 253° |
| 2026-04-30 14:14 | 56.14480 | 91.94143 | 14505 ft | 343 kts | 253° |
| 2026-04-30 14:14 | 56.13615 | 91.90130 | 15387 ft | 347 kts | 253° |
| 2026-04-30 14:14 | 56.12734 | 91.86074 | 16241 ft | 352 kts | 253° |
| 2026-04-30 14:14 | 56.11836 | 91.81969 | 17036 ft | 356 kts | 253° |
| 2026-04-30 14:15 | 56.10918 | 91.77809 | 17796 ft | 361 kts | 253° |
| 2026-04-30 14:15 | 56.09990 | 91.73634 | 18525 ft | 368 kts | 253° |
| 2026-04-30 14:15 | 56.09037 | 91.69371 | 19326 ft | 370 kts | 253° |
| 2026-04-30 14:15 | 56.08080 | 91.65092 | 20136 ft | 371 kts | 253° |
| 2026-04-30 14:16 | 56.07107 | 91.60767 | 20856 ft | 375 kts | 253° |
| 2026-04-30 14:16 | 56.06121 | 91.56420 | 21493 ft | 379 kts | 253° |
| 2026-04-30 14:16 | 56.05800 | 91.55008 | 21700 ft | 380 kts | 253° |
| 2026-04-30 14:16 | 56.04106 | 91.47615 | 22757 ft | 385 kts | 253° |
| 2026-04-30 14:17 | 56.03092 | 91.43217 | 23369 ft | 389 kts | 253° |
| 2026-04-30 14:17 | 56.02051 | 91.38726 | 23973 ft | 392 kts | 253° |
| 2026-04-30 14:17 | 56.01000 | 91.34210 | 24525 ft | 395 kts | 253° |
| 2026-04-30 14:17 | 55.99933 | 91.29645 | 25095 ft | 399 kts | 253° |
| 2026-04-30 14:18 | 55.99220 | 91.26607 | 25463 ft | 401 kts | 253° |
| 2026-04-30 14:18 | 55.98051 | 91.20355 | 26356 ft | 392 kts | 262° |
| 2026-04-30 14:18 | 55.96901 | 91.10791 | 27382 ft | 396 kts | 264° |
| 2026-04-30 14:19 | 55.95771 | 91.01152 | 28291 ft | 402 kts | 264° |
| 2026-04-30 14:19 | 55.95189 | 90.96253 | 28733 ft | 405 kts | 264° |
| 2026-04-30 14:19 | 55.94601 | 90.91326 | 29176 ft | 408 kts | 264° |
| 2026-04-30 14:20 | 55.94006 | 90.86362 | 29607 ft | 410 kts | 264° |
| 2026-04-30 14:20 | 55.93404 | 90.81359 | 30035 ft | 413 kts | 264° |
| 2026-04-30 14:20 | 55.92194 | 90.71342 | 30731 ft | 418 kts | 264° |
| 2026-04-30 14:21 | 55.91577 | 90.66267 | 31049 ft | 420 kts | 264° |
| 2026-04-30 14:21 | 55.90953 | 90.61152 | 31361 ft | 423 kts | 264° |
| 2026-04-30 14:21 | 55.89689 | 90.50856 | 31923 ft | 427 kts | 263° |
| 2026-04-30 14:22 | 55.89053 | 90.45703 | 32302 ft | 425 kts | 263° |
| 2026-04-30 14:22 | 55.87985 | 90.37069 | 32593 ft | 432 kts | 263° |
| 2026-04-30 14:22 | 55.87335 | 90.31849 | 32933 ft | 431 kts | 263° |
| 2026-04-30 14:23 | 55.84694 | 90.10856 | 34296 ft | 427 kts | 263° |
| 2026-04-30 14:24 | 55.82715 | 89.95288 | 34251 ft | 432 kts | 263° |
| 2026-04-30 14:25 | 55.80032 | 89.74431 | 34218 ft | 433 kts | 263° |
| 2026-04-30 14:26 | 55.78009 | 89.58846 | 34219 ft | 433 kts | 263° |
| 2026-04-30 14:27 | 55.75964 | 89.43198 | 34217 ft | 433 kts | 263° |
| 2026-04-30 14:27 | 55.74579 | 89.32754 | 34221 ft | 434 kts | 263° |
| 2026-04-30 14:28 | 55.72504 | 89.17163 | 34214 ft | 434 kts | 263° |
| 2026-04-30 14:28 | 55.71100 | 89.06738 | 34216 ft | 435 kts | 263° |
| 2026-04-30 14:29 | 55.68222 | 88.85849 | 34216 ft | 436 kts | 262° |
| 2026-04-30 14:31 | 55.64614 | 88.59728 | 34217 ft | 437 kts | 263° |
| 2026-04-30 14:31 | 55.62427 | 88.44024 | 34218 ft | 438 kts | 262° |
| 2026-04-30 14:32 | 55.60230 | 88.28413 | 34219 ft | 438 kts | 262° |
| 2026-04-30 14:33 | 55.58744 | 88.17942 | 34217 ft | 439 kts | 262° |
| 2026-04-30 14:33 | 55.56503 | 88.02277 | 34224 ft | 439 kts | 262° |
| 2026-04-30 14:34 | 55.54991 | 87.91805 | 34217 ft | 439 kts | 262° |
| 2026-04-30 14:34 | 55.53473 | 87.81348 | 34223 ft | 440 kts | 262° |
| 2026-04-30 14:35 | 55.51185 | 87.65715 | 34216 ft | 440 kts | 262° |
| 2026-04-30 14:36 | 55.49644 | 87.55267 | 34219 ft | 441 kts | 262° |
| 2026-04-30 14:36 | 55.48077 | 87.44808 | 34228 ft | 441 kts | 262° |
| 2026-04-30 14:37 | 55.46494 | 87.34370 | 34223 ft | 441 kts | 262° |
| 2026-04-30 14:37 | 55.44900 | 87.23899 | 34220 ft | 442 kts | 262° |
| 2026-04-30 14:38 | 55.43301 | 87.13448 | 34222 ft | 442 kts | 261° |
| 2026-04-30 14:38 | 55.41689 | 87.02993 | 34226 ft | 442 kts | 261° |
| 2026-04-30 14:39 | 55.40071 | 86.92554 | 34220 ft | 442 kts | 261° |
| 2026-04-30 14:39 | 55.38719 | 86.83873 | 34219 ft | 443 kts | 261° |
| 2026-04-30 14:40 | 55.34436 | 86.56696 | 34219 ft | 444 kts | 261° |
| 2026-04-30 14:41 | 55.32769 | 86.46234 | 34211 ft | 444 kts | 261° |
| 2026-04-30 14:41 | 55.31094 | 86.35786 | 34210 ft | 444 kts | 261° |
| 2026-04-30 14:42 | 55.29419 | 86.25407 | 34216 ft | 444 kts | 260° |
| 2026-04-30 14:42 | 55.28287 | 86.18419 | 34217 ft | 445 kts | 260° |